Time;durP1;ratioP1;P1;durP2;ratioP2;P2;SDS_P1;SDS_P2;PMS_P1;PMS_P2;Temp;Humidity;BMP_temperature;BMP_pressure;BME280_temperature;BME280_humidity;BME280_pressure;Samples;Min_cycle;Max_cycle;Signal;HPM_P1;HPM_P2
2022/10/13 00:00:57;;;;;;;12.35;8.63;;;;;;;;;;5086883;28;20058;-79
2022/10/13 00:03:22;;;;;;;13.40;9.00;;;;;;;;;;5054918;28;20401;-78
2022/10/13 00:05:49;;;;;;;13.50;8.43;;;;;;;;;;5053123;28;20135;-78
2022/10/13 00:08:17;;;;;;;10.27;8.23;;;;;;;;;;5054178;28;20021;-79
2022/10/13 00:10:43;;;;;;;12.50;8.48;;;;;;;;;;5054753;28;20033;-78
2022/10/13 00:13:08;;;;;;;13.00;8.25;;;;;;;;;;5054420;28;20443;-79
2022/10/13 00:15:41;;;;;;;15.88;8.10;;;;;;;;;;5054615;28;20051;-78
2022/10/13 00:18:06;;;;;;;15.02;7.95;;;;;;;;;;5053745;28;20493;-78
2022/10/13 00:20:31;;;;;;;10.07;7.35;;;;;;;;;;5086923;28;20099;-78
2022/10/13 00:22:56;;;;;;;13.18;7.35;;;;;;;;;;5065748;28;20777;-82
2022/10/13 00:25:22;;;;;;;12.87;7.70;;;;;;;;;;5073802;28;20087;-83
2022/10/13 00:27:47;;;;;;;14.23;7.50;;;;;;;;;;5079415;28;20265;-83
2022/10/13 00:30:12;;;;;;;19.17;8.00;;;;;;;;;;5075935;28;20162;-83
2022/10/13 00:32:37;;;;;;;15.85;7.50;;;;;;;;;;5044248;28;20294;-81
2022/10/13 00:35:03;;;;;;;16.42;7.88;;;;;;;;;;5044248;28;20387;-81
2022/10/13 00:37:28;;;;;;;20.17;7.28;;;;;;;;;;5052620;28;20028;-81
2022/10/13 00:39:53;;;;;;;16.52;7.88;;;;;;;;;;5069358;28;20548;-81
2022/10/13 00:42:19;;;;;;;14.85;7.28;;;;;;;;;;5058475;28;20471;-81
2022/10/13 00:44:58;;;;;;;10.35;7.25;;;;;;;;;;5063847;28;20021;-82
2022/10/13 00:47:24;;;;;;;12.60;7.55;;;;;;;;;;5030189;28;20017;-81
2022/10/13 00:49:49;;;;;;;12.90;7.32;;;;;;;;;;5070354;28;20031;-81
2022/10/13 00:52:16;;;;;;;9.98;6.70;;;;;;;;;;5043930;28;20115;-78
2022/10/13 00:54:41;;;;;;;10.52;7.13;;;;;;;;;;5072321;28;20025;-80
2022/10/13 00:57:07;;;;;;;16.45;7.55;;;;;;;;;;5070066;28;20027;-80
2022/10/13 00:59:33;;;;;;;11.70;7.80;;;;;;;;;;5048187;28;20008;-80
2022/10/13 01:01:59;;;;;;;12.82;6.93;;;;;;;;;;5051219;28;20016;-82
2022/10/13 01:04:26;;;;;;;12.15;6.85;;;;;;;;;;5067738;28;20470;-73
2022/10/13 01:06:53;;;;;;;10.63;7.60;;;;;;;;;;5071768;28;20413;-78
2022/10/13 01:09:19;;;;;;;10.77;7.40;;;;;;;;;;5054309;28;20025;-78
2022/10/13 01:12:13;;;;;;;12.68;7.93;;;;;;;;;;5051383;28;20054;-78
2022/10/13 01:14:39;;;;;;;10.32;7.10;;;;;;;;;;5054534;28;20566;-78
2022/10/13 01:17:10;;;;;;;19.58;7.40;;;;;;;;;;5055390;28;20111;-78
2022/10/13 01:19:35;;;;;;;13.18;7.22;;;;;;;;;;5046614;28;20493;-78
2022/10/13 01:22:12;;;;;;;18.63;6.63;;;;;;;;;;5075861;28;20012;-79
2022/10/13 01:24:42;;;;;;;10.00;7.38;;;;;;;;;;5075916;28;20298;-79
2022/10/13 01:27:13;;;;;;;11.10;7.53;;;;;;;;;;5061709;28;20537;-79
2022/10/13 01:29:57;;;;;;;12.82;7.50;;;;;;;;;;5057078;28;20033;-80
2022/10/13 01:32:34;;;;;;;7.87;5.20;;;;;;;;;;5079595;28;20425;-80
2022/10/13 01:35:05;;;;;;;12.23;7.38;;;;;;;;;;5070127;28;20028;-80
2022/10/13 01:37:47;;;;;;;15.68;7.85;;;;;;;;;;5075476;28;20051;-79
2022/10/13 01:40:33;;;;;;;14.02;8.07;;;;;;;;;;5070918;28;20004;-80
2022/10/13 01:43:05;;;;;;;13.40;7.18;;;;;;;;;;5064695;28;20035;-79
2022/10/13 01:45:34;;;;;;;9.52;6.95;;;;;;;;;;5075674;28;20025;-79
2022/10/13 01:48:01;;;;;;;20.30;8.02;;;;;;;;;;5090194;28;20017;-79
2022/10/13 01:50:27;;;;;;;10.23;7.03;;;;;;;;;;5057096;28;20104;-79
2022/10/13 01:52:52;;;;;;;16.33;7.40;;;;;;;;;;5090674;28;20108;-79
2022/10/13 01:55:17;;;;;;;13.77;8.20;;;;;;;;;;5055816;28;20376;-79
2022/10/13 01:57:43;;;;;;;10.98;7.60;;;;;;;;;;5074834;28;20062;-80
2022/10/13 02:00:13;;;;;;;16.60;7.40;;;;;;;;;;5057606;28;20458;-81
2022/10/13 02:02:57;;;;;;;10.93;7.65;;;;;;;;;;5074534;28;20017;-80
2022/10/13 02:05:31;;;;;;;11.27;7.65;;;;;;;;;;5056381;28;20020;-79
2022/10/13 02:07:56;;;;;;;;;;;;;;;;;;5072349;28;20016;-80
2022/10/13 02:10:25;;;;;;;12.30;7.67;;;;;;;;;;5092286;28;20393;-80
2022/10/13 02:12:54;;;;;;;10.63;8.02;;;;;;;;;;5075661;28;20024;-80
2022/10/13 02:15:23;;;;;;;17.90;8.68;;;;;;;;;;5074357;28;20511;-80
2022/10/13 02:17:49;;;;;;;14.23;8.60;;;;;;;;;;5055672;28;20008;-81
2022/10/13 02:20:16;;;;;;;14.27;8.30;;;;;;;;;;5074552;28;20024;-82
2022/10/13 02:22:42;;;;;;;15.73;8.68;;;;;;;;;;5052262;28;20024;-82
2022/10/13 02:25:08;;;;;;;14.25;8.20;;;;;;;;;;5056475;28;20092;-82
2022/10/13 02:27:33;;;;;;;16.52;8.93;;;;;;;;;;5046934;28;20040;-82
2022/10/13 02:29:58;;;;;;;15.90;8.40;;;;;;;;;;5074143;28;20429;-83
2022/10/13 02:32:24;;;;;;;12.43;9.25;;;;;;;;;;5055928;28;20103;-84
2022/10/13 02:34:49;;;;;;;15.82;8.73;;;;;;;;;;5056838;28;20382;-84
2022/10/13 02:37:15;;;;;;;12.27;7.90;;;;;;;;;;5069417;28;20360;-85
2022/10/13 02:39:40;;;;;;;15.00;9.00;;;;;;;;;;5063060;28;20158;-85
2022/10/13 02:42:05;;;;;;;11.80;8.23;;;;;;;;;;5074172;28;20039;-80
2022/10/13 02:44:31;;;;;;;16.30;8.50;;;;;;;;;;5056597;28;20271;-84
2022/10/13 02:46:56;;;;;;;24.48;9.10;;;;;;;;;;5055317;28;20039;-86
2022/10/13 02:49:21;;;;;;;14.95;9.27;;;;;;;;;;5054791;28;20013;-85
2022/10/13 02:51:46;;;;;;;18.10;8.70;;;;;;;;;;5085099;28;20024;-85
2022/10/13 02:54:12;;;;;;;12.93;8.80;;;;;;;;;;5076217;28;20013;-80
2022/10/13 02:56:37;;;;;;;10.13;7.90;;;;;;;;;;5075324;28;20355;-81
2022/10/13 02:59:02;;;;;;;12.80;8.80;;;;;;;;;;5074166;28;20865;-76
2022/10/13 03:01:28;;;;;;;16.02;8.63;;;;;;;;;;5057161;28;20324;-84
2022/10/13 03:03:53;;;;;;;19.70;8.40;;;;;;;;;;5074229;28;20043;-84
2022/10/13 03:06:18;;;;;;;14.80;8.27;;;;;;;;;;5056028;28;20024;-85
2022/10/13 03:08:43;;;;;;;12.18;8.35;;;;;;;;;;5055958;28;20421;-84
2022/10/13 03:11:09;;;;;;;20.13;8.85;;;;;;;;;;5067599;28;20020;-85
2022/10/13 03:13:35;;;;;;;15.00;8.80;;;;;;;;;;5074038;28;20382;-81
2022/10/13 03:16:00;;;;;;;15.52;8.55;;;;;;;;;;5048918;28;20025;-81
2022/10/13 03:18:25;;;;;;;12.57;8.40;;;;;;;;;;5071444;28;20109;-81
2022/10/13 03:20:54;;;;;;;12.50;7.85;;;;;;;;;;5055857;28;20331;-81
2022/10/13 03:23:19;;;;;;;21.38;9.07;;;;;;;;;;5053187;28;20117;-82
2022/10/13 03:25:45;;;;;;;9.95;7.38;;;;;;;;;;5064930;28;20096;-85
2022/10/13 03:28:10;;;;;;;11.48;7.65;;;;;;;;;;5072404;28;20024;-83
2022/10/13 03:30:35;;;;;;;10.73;8.00;;;;;;;;;;5073504;28;20492;-84
2022/10/13 03:33:01;;;;;;;14.75;8.20;;;;;;;;;;5055576;28;20016;-84
2022/10/13 03:35:26;;;;;;;17.08;8.57;;;;;;;;;;5055374;28;20062;-84
2022/10/13 03:37:52;;;;;;;18.53;9.30;;;;;;;;;;5055537;28;20028;-84
2022/10/13 03:40:18;;;;;;;13.57;8.30;;;;;;;;;;5064936;28;20289;-80
2022/10/13 03:42:43;;;;;;;16.48;7.97;;;;;;;;;;5064239;28;20013;-80
2022/10/13 03:45:09;;;;;;;11.20;7.93;;;;;;;;;;5055056;28;20035;-81
2022/10/13 03:47:35;;;;;;;13.55;8.30;;;;;;;;;;5072800;28;20275;-81
2022/10/13 03:50:00;;;;;;;16.42;8.10;;;;;;;;;;5072780;28;20025;-79
2022/10/13 03:52:25;;;;;;;14.25;7.47;;;;;;;;;;5088742;28;20055;-80
2022/10/13 03:54:50;;;;;;;17.35;7.88;;;;;;;;;;5055198;28;20039;-79
2022/10/13 03:57:16;;;;;;;16.90;8.53;;;;;;;;;;5058138;28;20017;-80
2022/10/13 03:59:41;;;;;;;12.93;7.70;;;;;;;;;;5086155;28;20270;-79
2022/10/13 04:02:06;;;;;;;11.30;7.00;;;;;;;;;;5052255;28;20290;-79
2022/10/13 04:04:31;;;;;;;10.95;7.85;;;;;;;;;;5054506;28;20083;-79
2022/10/13 04:06:57;;;;;;;12.88;7.50;;;;;;;;;;5073282;28;20020;-80
2022/10/13 04:09:22;;;;;;;12.50;8.25;;;;;;;;;;5054465;28;20387;-81
2022/10/13 04:11:51;;;;;;;11.60;7.07;;;;;;;;;;5054789;28;20012;-80
2022/10/13 04:14:16;;;;;;;10.48;7.10;;;;;;;;;;5054766;28;20020;-80
2022/10/13 04:16:41;;;;;;;13.23;7.88;;;;;;;;;;5053027;28;20451;-80
2022/10/13 04:19:07;;;;;;;11.70;7.05;;;;;;;;;;5055006;28;20017;-79
2022/10/13 04:21:33;;;;;;;11.95;7.95;;;;;;;;;;5050632;28;20017;-79
2022/10/13 04:23:59;;;;;;;15.57;8.18;;;;;;;;;;5046305;28;20462;-79
2022/10/13 04:26:26;;;;;;;18.60;8.25;;;;;;;;;;5070081;28;20017;-80
2022/10/13 04:28:52;;;;;;;11.18;8.25;;;;;;;;;;5087691;28;20066;-80
2022/10/13 04:31:17;;;;;;;19.58;9.32;;;;;;;;;;5072743;28;20028;-79
2022/10/13 04:33:43;;;;;;;15.80;8.88;;;;;;;;;;5054401;28;20534;-84
2022/10/13 04:36:10;;;;;;;17.30;8.25;;;;;;;;;;5072138;28;20115;-82
2022/10/13 04:38:35;;;;;;;13.27;8.88;;;;;;;;;;5072398;28;20008;-79
2022/10/13 04:41:02;;;;;;;16.10;8.30;;;;;;;;;;5068115;28;20356;-80
2022/10/13 04:43:27;;;;;;;10.52;7.88;;;;;;;;;;5054187;28;20028;-82
2022/10/13 04:45:52;;;;;;;13.85;8.30;;;;;;;;;;5054336;28;20382;-82
2022/10/13 04:48:18;;;;;;;14.35;8.27;;;;;;;;;;5052540;28;20103;-83
2022/10/13 04:50:43;;;;;;;12.35;8.65;;;;;;;;;;5072437;28;20032;-82
2022/10/13 04:53:08;;;;;;;19.60;9.35;;;;;;;;;;5060033;28;20021;-82
2022/10/13 04:55:34;;;;;;;13.07;9.13;;;;;;;;;;5061194;28;20008;-82
2022/10/13 04:58:00;;;;;;;15.02;8.40;;;;;;;;;;5060542;28;20053;-83
2022/10/13 05:00:25;;;;;;;13.38;9.82;;;;;;;;;;5062856;28;20115;-83
2022/10/13 05:02:50;;;;;;;13.75;9.32;;;;;;;;;;5070746;28;20027;-82
2022/10/13 05:05:16;;;;;;;14.68;9.27;;;;;;;;;;5061154;28;20367;-86
2022/10/13 05:07:41;;;;;;;12.20;8.68;;;;;;;;;;5060325;28;20066;-79
2022/10/13 05:10:06;;;;;;;11.80;8.60;;;;;;;;;;5078206;28;20015;-77
2022/10/13 05:12:32;;;;;;;13.82;8.70;;;;;;;;;;5062308;28;20275;-75
2022/10/13 05:14:57;;;;;;;16.90;8.90;;;;;;;;;;5060267;28;20021;-80
2022/10/13 05:17:23;;;;;;;15.38;8.18;;;;;;;;;;5078107;28;20453;-74
2022/10/13 05:19:48;;;;;;;16.20;9.90;;;;;;;;;;5079171;28;20016;-70
2022/10/13 05:22:13;;;;;;;19.13;10.20;;;;;;;;;;5078561;28;20032;-77
2022/10/13 05:24:39;;;;;;;17.95;10.55;;;;;;;;;;5059933;28;20023;-78
2022/10/13 05:27:06;;;;;;;21.02;10.90;;;;;;;;;;5072139;28;20024;-78
2022/10/13 05:29:31;;;;;;;13.82;10.35;;;;;;;;;;5048226;28;20033;-78
2022/10/13 05:31:56;;;;;;;16.60;11.75;;;;;;;;;;5059146;28;20039;-78
2022/10/13 05:34:22;;;;;;;20.15;11.77;;;;;;;;;;5065402;28;20585;-78
2022/10/13 05:36:47;;;;;;;17.40;10.77;;;;;;;;;;5045475;28;20051;-78
2022/10/13 05:39:12;;;;;;;21.10;10.52;;;;;;;;;;5045693;28;20277;-78
2022/10/13 05:41:38;;;;;;;19.15;10.63;;;;;;;;;;5045418;28;20031;-78
2022/10/13 05:44:06;;;;;;;19.13;10.77;;;;;;;;;;5051800;28;20035;-84
2022/10/13 05:46:31;;;;;;;16.95;10.60;;;;;;;;;;5065939;28;20120;-77
2022/10/13 05:48:57;;;;;;;23.20;11.30;;;;;;;;;;5051469;28;20016;-80
2022/10/13 05:51:42;;;;;;;16.50;11.43;;;;;;;;;;5059698;28;20074;-79
2022/10/13 05:54:11;;;;;;;17.63;12.07;;;;;;;;;;5059843;28;20089;-78
2022/10/13 05:56:39;;;;;;;24.33;11.75;;;;;;;;;;5047672;28;20052;-78
2022/10/13 05:59:06;;;;;;;13.07;11.70;;;;;;;;;;5058138;28;20024;-78
2022/10/13 06:01:32;;;;;;;17.40;12.13;;;;;;;;;;5059632;28;20032;-78
2022/10/13 06:04:00;;;;;;;18.95;13.13;;;;;;;;;;5056017;28;20039;-78
2022/10/13 06:06:25;;;;;;;18.98;13.02;;;;;;;;;;5076580;28;20078;-79
2022/10/13 06:08:51;;;;;;;16.67;13.50;;;;;;;;;;5058807;28;20021;-79
2022/10/13 06:11:16;;;;;;;23.77;13.57;;;;;;;;;;5076961;28;20016;-78
2022/10/13 06:13:41;;;;;;;19.95;13.52;;;;;;;;;;5056266;28;20024;-79
2022/10/13 06:16:07;;;;;;;19.90;13.13;;;;;;;;;;5074519;28;20025;-78
2022/10/13 06:18:32;;;;;;;20.85;13.55;;;;;;;;;;5058223;28;20070;-80
2022/10/13 06:20:57;;;;;;;21.88;14.43;;;;;;;;;;5055495;28;20035;-78
2022/10/13 06:23:23;;;;;;;25.33;13.63;;;;;;;;;;5073539;28;20024;-79
2022/10/13 06:25:48;;;;;;;22.05;14.27;;;;;;;;;;5055693;28;20379;-78
2022/10/13 06:28:14;;;;;;;20.42;15.57;;;;;;;;;;5057695;28;20052;-78
2022/10/13 06:30:41;;;;;;;22.80;15.98;;;;;;;;;;5054563;28;20524;-81
2022/10/13 06:33:07;;;;;;;22.27;14.75;;;;;;;;;;5055750;28;20021;-83
2022/10/13 06:35:32;;;;;;;16.35;13.57;;;;;;;;;;5051201;28;20025;-81
2022/10/13 06:37:58;;;;;;;16.30;13.15;;;;;;;;;;5067536;28;20074;-81
2022/10/13 06:40:23;;;;;;;21.42;14.90;;;;;;;;;;5058823;28;20024;-82
2022/10/13 06:42:49;;;;;;;18.10;14.60;;;;;;;;;;5059195;28;20019;-79
2022/10/13 06:45:15;;;;;;;22.80;14.40;;;;;;;;;;5047596;28;20026;-80
2022/10/13 06:47:40;;;;;;;19.63;13.40;;;;;;;;;;5067075;28;20029;-78
2022/10/13 06:50:05;;;;;;;20.60;13.98;;;;;;;;;;5068457;28;20021;-78
2022/10/13 06:52:31;;;;;;;18.23;13.98;;;;;;;;;;5054691;28;20032;-78
2022/10/13 06:54:56;;;;;;;19.10;13.45;;;;;;;;;;5095154;28;20482;-79
2022/10/13 06:57:21;;;;;;;18.83;13.63;;;;;;;;;;5055661;28;20027;-78
2022/10/13 06:59:47;;;;;;;22.13;14.70;;;;;;;;;;5056113;28;20259;-78
2022/10/13 07:02:12;;;;;;;20.98;14.57;;;;;;;;;;5073266;28;20285;-78
2022/10/13 07:04:37;;;;;;;19.77;13.52;;;;;;;;;;5055483;28;20463;-79
2022/10/13 07:07:02;;;;;;;23.23;14.68;;;;;;;;;;5062246;28;20021;-79
2022/10/13 07:09:28;;;;;;;19.42;15.70;;;;;;;;;;5054685;28;20025;-78
2022/10/13 07:11:53;;;;;;;20.90;14.40;;;;;;;;;;5072030;28;20016;-78
2022/10/13 07:14:19;;;;;;;20.67;14.07;;;;;;;;;;5074663;28;20032;-78
2022/10/13 07:16:46;;;;;;;18.75;13.73;;;;;;;;;;5054844;28;20024;-78
2022/10/13 07:19:11;;;;;;;21.17;13.70;;;;;;;;;;5033163;28;20070;-78
2022/10/13 07:21:37;;;;;;;24.95;13.63;;;;;;;;;;5056004;28;20040;-78
2022/10/13 07:24:02;;;;;;;23.20;13.60;;;;;;;;;;5072756;28;20039;-78
2022/10/13 07:26:28;;;;;;;25.23;13.13;;;;;;;;;;5055951;28;20369;-78
2022/10/13 07:28:53;;;;;;;19.67;12.80;;;;;;;;;;5064489;28;20017;-78
2022/10/13 07:31:19;;;;;;;18.23;12.45;;;;;;;;;;5055184;28;20027;-78
2022/10/13 07:33:45;;;;;;;16.10;12.38;;;;;;;;;;5054867;28;20439;-78
2022/10/13 07:36:11;;;;;;;16.67;12.32;;;;;;;;;;5053033;28;20032;-78
2022/10/13 07:38:36;;;;;;;21.40;12.73;;;;;;;;;;5080728;28;20862;-78
2022/10/13 07:41:05;;;;;;;18.58;12.65;;;;;;;;;;5054290;28;20495;-78
2022/10/13 07:43:30;;;;;;;20.10;12.13;;;;;;;;;;5041329;28;20020;-79
2022/10/13 07:45:57;;;;;;;17.60;11.75;;;;;;;;;;5054123;28;20352;-78
2022/10/13 07:48:22;;;;;;;18.02;12.05;;;;;;;;;;5042439;28;20387;-79
2022/10/13 07:50:48;;;;;;;18.57;11.87;;;;;;;;;;5069673;28;20020;-79
2022/10/13 07:53:13;;;;;;;18.53;10.80;;;;;;;;;;5054430;28;20271;-79
2022/10/13 07:55:38;;;;;;;15.50;10.70;;;;;;;;;;5054396;28;20757;-79
2022/10/13 07:58:03;;;;;;;14.27;9.80;;;;;;;;;;5064508;28;20668;-78
2022/10/13 08:00:28;;;;;;;14.95;9.93;;;;;;;;;;5048300;28;20607;-78
2022/10/13 08:02:54;;;;;;;21.92;11.00;;;;;;;;;;5071903;28;20021;-78
2022/10/13 08:05:19;;;;;;;15.70;9.18;;;;;;;;;;5054067;28;20467;-78
2022/10/13 08:07:44;;;;;;;14.35;10.02;;;;;;;;;;5071546;28;20032;-79
2022/10/13 08:10:10;;;;;;;13.00;9.02;;;;;;;;;;5052051;28;20036;-79
2022/10/13 08:12:36;;;;;;;12.98;8.90;;;;;;;;;;5071591;28;20059;-78
2022/10/13 08:15:01;;;;;;;17.08;9.50;;;;;;;;;;5056311;28;20104;-80
2022/10/13 08:17:27;;;;;;;16.23;9.98;;;;;;;;;;5072293;28;20111;-78
2022/10/13 08:19:52;;;;;;;12.73;8.80;;;;;;;;;;5071593;28;20020;-79
2022/10/13 08:22:17;;;;;;;12.23;8.38;;;;;;;;;;5071043;28;20479;-78
2022/10/13 08:24:42;;;;;;;13.73;8.73;;;;;;;;;;5053318;28;20341;-79
2022/10/13 08:27:15;;;;;;;13.95;8.40;;;;;;;;;;5071450;28;20017;-82
2022/10/13 08:29:41;;;;;;;12.75;8.30;;;;;;;;;;5086171;28;20070;-81
2022/10/13 08:32:07;;;;;;;11.95;7.38;;;;;;;;;;5046792;28;20024;-80
2022/10/13 08:34:32;;;;;;;13.63;7.60;;;;;;;;;;5065306;28;20116;-79
2022/10/13 08:36:59;;;;;;;11.65;8.32;;;;;;;;;;5053489;28;20032;-86
2022/10/13 08:39:24;;;;;;;15.73;8.45;;;;;;;;;;5083136;28;20020;-86
2022/10/13 08:41:49;;;;;;;13.70;8.82;;;;;;;;;;5055757;28;20025;-82
2022/10/13 08:44:19;;;;;;;9.98;7.05;;;;;;;;;;5051131;28;20065;-78
2022/10/13 08:46:52;;;;;;;18.80;7.57;;;;;;;;;;5052342;28;20493;-78
2022/10/13 08:49:17;;;;;;;12.95;7.88;;;;;;;;;;5053623;28;20025;-77
2022/10/13 08:51:42;;;;;;;15.80;7.82;;;;;;;;;;5053078;28;20023;-78
2022/10/13 08:54:09;;;;;;;18.05;8.07;;;;;;;;;;5043031;28;20050;-77
2022/10/13 08:56:35;;;;;;;10.77;7.40;;;;;;;;;;5081850;28;20074;-79
2022/10/13 08:59:03;;;;;;;19.73;7.88;;;;;;;;;;5054347;28;20024;-78
2022/10/13 09:01:34;;;;;;;12.40;8.30;;;;;;;;;;5059076;28;20033;-76
2022/10/13 09:04:10;;;;;;;12.68;7.88;;;;;;;;;;5052793;28;20107;-77
2022/10/13 09:06:45;;;;;;;11.40;7.63;;;;;;;;;;5065790;28;20374;-75
2022/10/13 09:09:11;;;;;;;12.88;7.30;;;;;;;;;;5059017;28;20028;-76
2022/10/13 09:11:37;;;;;;;15.02;7.47;;;;;;;;;;5067707;28;20020;-77
2022/10/13 09:14:04;;;;;;;9.77;7.47;;;;;;;;;;5087279;28;20097;-77
2022/10/13 09:16:33;;;;;;;11.90;7.40;;;;;;;;;;5053034;28;20021;-76
2022/10/13 09:19:18;;;;;;;8.90;6.93;;;;;;;;;;5052846;28;20024;-76
2022/10/13 09:21:43;;;;;;;14.65;7.10;;;;;;;;;;5086260;28;20044;-80
2022/10/13 09:24:13;;;;;;;13.77;7.23;;;;;;;;;;5070329;28;20383;-81
2022/10/13 09:26:38;;;;;;;18.88;6.45;;;;;;;;;;5082893;28;20255;-78
2022/10/13 09:29:14;;;;;;;14.57;7.10;;;;;;;;;;5071519;28;20546;-78
2022/10/13 09:31:40;;;;;;;15.40;6.30;;;;;;;;;;5053412;28;20024;-81
2022/10/13 09:34:08;;;;;;;13.18;7.18;;;;;;;;;;5071464;28;20462;-80
2022/10/13 09:36:33;;;;;;;13.40;7.03;;;;;;;;;;5071270;28;20029;-78
2022/10/13 09:39:15;;;;;;;10.60;6.93;;;;;;;;;;5055010;28;20095;-86
2022/10/13 09:41:43;;;;;;;12.48;7.40;;;;;;;;;;5048726;28;20027;-77
2022/10/13 09:44:13;;;;;;;17.15;8.20;;;;;;;;;;5056390;28;20032;-78
2022/10/13 09:46:50;;;;;;;17.48;7.50;;;;;;;;;;5073517;28;20098;-79
2022/10/13 09:49:34;;;;;;;13.35;7.70;;;;;;;;;;5051806;28;20021;-79
2022/10/13 09:52:01;;;;;;;14.93;8.07;;;;;;;;;;5063663;28;20480;-81
2022/10/13 09:54:34;;;;;;;13.57;7.80;;;;;;;;;;5039055;28;20609;-81
2022/10/13 09:57:02;;;;;;;12.43;8.63;;;;;;;;;;5058503;28;20550;-78
2022/10/13 09:59:32;;;;;;;18.67;8.73;;;;;;;;;;5055740;28;20040;-78
2022/10/13 10:01:59;;;;;;;14.73;8.43;;;;;;;;;;5054006;28;20521;-81
2022/10/13 10:04:34;;;;;;;11.05;7.15;;;;;;;;;;5055802;28;20099;-79
2022/10/13 10:07:00;;;;;;;15.73;8.40;;;;;;;;;;5057269;28;20020;-82
2022/10/13 10:09:26;;;;;;;15.48;8.38;;;;;;;;;;5053069;28;20025;-76
2022/10/13 10:11:52;;;;;;;12.48;8.18;;;;;;;;;;5056237;28;20027;-77
2022/10/13 10:14:25;;;;;;;11.60;8.73;;;;;;;;;;5058827;28;20028;-83
2022/10/13 10:16:53;;;;;;;14.20;8.27;;;;;;;;;;5087693;28;20018;-81
2022/10/13 10:19:23;;;;;;;17.38;10.15;;;;;;;;;;5076592;28;20442;-80
2022/10/13 10:21:54;;;;;;;14.57;9.00;;;;;;;;;;5055650;28;20020;-80
2022/10/13 10:24:39;;;;;;;13.43;9.15;;;;;;;;;;5074142;28;20060;-79
2022/10/13 10:27:08;;;;;;;13.70;9.25;;;;;;;;;;5062719;28;20028;-74
2022/10/13 10:29:52;;;;;;;18.15;9.00;;;;;;;;;;5055268;28;20029;-78
2022/10/13 10:32:30;;;;;;;13.75;9.00;;;;;;;;;;5056673;28;20024;-78
2022/10/13 10:35:12;;;;;;;13.20;9.35;;;;;;;;;;5055518;28;20013;-78
2022/10/13 10:37:56;;;;;;;12.85;9.10;;;;;;;;;;5044637;28;20119;-78
2022/10/13 10:40:30;;;;;;;16.50;8.70;;;;;;;;;;5073136;28;20017;-78
2022/10/13 10:43:15;;;;;;;12.25;8.68;;;;;;;;;;5055972;28;20063;-78
2022/10/13 10:45:41;;;;;;;13.82;9.20;;;;;;;;;;5072497;28;20474;-78
2022/10/13 10:48:14;;;;;;;12.73;7.78;;;;;;;;;;5074072;28;20027;-78
2022/10/13 10:50:39;;;;;;;15.57;8.13;;;;;;;;;;5053250;28;20037;-78
2022/10/13 10:53:23;;;;;;;17.17;8.13;;;;;;;;;;5073797;28;20024;-78
2022/10/13 10:55:52;;;;;;;12.45;8.18;;;;;;;;;;5088999;28;20016;-78
2022/10/13 10:58:21;;;;;;;16.15;8.85;;;;;;;;;;5073850;28;20048;-77
2022/10/13 11:00:52;;;;;;;12.57;8.45;;;;;;;;;;5073089;28;20016;-77
2022/10/13 11:03:29;;;;;;;11.73;8.15;;;;;;;;;;5054860;28;20028;-77
2022/10/13 11:06:18;;;;;;;12.95;7.85;;;;;;;;;;5055311;28;20020;-78
2022/10/13 11:08:48;;;;;;;20.40;8.85;;;;;;;;;;5054325;28;20035;-77
2022/10/13 11:11:19;;;;;;;15.23;8.70;;;;;;;;;;5090010;28;20032;-77
2022/10/13 11:14:14;;;;;;;13.25;9.18;;;;;;;;;;5055308;28;20029;-76
2022/10/13 11:16:57;;;;;;;12.32;7.57;;;;;;;;;;5032268;28;20038;-77
2022/10/13 11:19:27;;;;;;;10.48;7.18;;;;;;;;;;5083820;28;20029;-76
2022/10/13 11:21:52;;;;;;;13.60;7.90;;;;;;;;;;5056584;28;20058;-76
2022/10/13 11:24:33;;;;;;;11.83;6.70;;;;;;;;;;5053856;28;20487;-76
2022/10/13 11:27:09;;;;;;;10.75;7.38;;;;;;;;;;5055113;28;20649;-77
2022/10/13 11:29:54;;;;;;;13.27;6.68;;;;;;;;;;5073096;28;20016;-78
2022/10/13 11:32:40;;;;;;;10.05;6.20;;;;;;;;;;5072387;28;20035;-75
2022/10/13 11:35:06;;;;;;;13.43;5.93;;;;;;;;;;5055568;28;20031;-77
2022/10/13 11:37:37;;;;;;;8.38;5.45;;;;;;;;;;5072369;28;20032;-77
2022/10/13 11:40:22;;;;;;;7.32;5.95;;;;;;;;;;5072010;28;20024;-78
2022/10/13 11:42:56;;;;;;;10.95;6.13;;;;;;;;;;5055474;28;20517;-78
2022/10/13 11:45:21;;;;;;;;;;;;;;;;;;5040980;28;20033;-77
2022/10/13 11:48:00;;;;;;;20.35;7.07;;;;;;;;;;5073313;28;19908;-78
2022/10/13 11:50:35;;;;;;;11.77;5.82;;;;;;;;;;5088034;28;20033;-76
2022/10/13 11:53:00;;;;;;;;;;;;;;;;;;5060685;28;20127;-76
2022/10/13 11:55:31;;;;;;;8.77;5.80;;;;;;;;;;5099822;28;19966;-76
2022/10/13 11:58:26;;;;;;;14.13;7.70;;;;;;;;;;5054557;28;20047;-80
2022/10/13 12:01:02;;;;;;;8.70;6.38;;;;;;;;;;5043475;28;20036;-77
2022/10/13 12:03:29;;;;;;;12.95;7.07;;;;;;;;;;5054614;28;20012;-78
2022/10/13 12:05:57;;;;;;;12.68;6.78;;;;;;;;;;5053870;28;20535;-79
2022/10/13 12:08:24;;;;;;;12.98;7.97;;;;;;;;;;5071939;28;20031;-76
2022/10/13 12:10:58;;;;;;;11.75;6.70;;;;;;;;;;5054429;28;20031;-79
2022/10/13 12:13:25;;;;;;;10.25;6.88;;;;;;;;;;5051542;28;20024;-78
2022/10/13 12:16:02;;;;;;;16.05;7.38;;;;;;;;;;5053972;28;20173;-77
2022/10/13 12:18:37;;;;;;;10.20;6.32;;;;;;;;;;5086502;28;20055;-77
2022/10/13 12:21:23;;;;;;;10.77;5.65;;;;;;;;;;5069625;28;20032;-78
2022/10/13 12:23:49;;;;;;;16.08;6.28;;;;;;;;;;5070376;28;20493;-78
2022/10/13 12:26:16;;;;;;;10.75;5.88;;;;;;;;;;5074164;28;20138;-77
2022/10/13 12:28:50;;;;;;;10.77;5.80;;;;;;;;;;5053810;28;20112;-78
2022/10/13 12:31:28;;;;;;;9.75;6.32;;;;;;;;;;5066114;28;20390;-78
2022/10/13 12:33:58;;;;;;;14.07;7.85;;;;;;;;;;5057185;28;20017;-79
2022/10/13 12:36:25;;;;;;;9.55;6.43;;;;;;;;;;5053241;28;20063;-81
2022/10/13 12:38:52;;;;;;;11.70;6.97;;;;;;;;;;5071678;28;20356;-79
2022/10/13 12:41:21;;;;;;;9.35;6.85;;;;;;;;;;5055395;28;20122;-78
2022/10/13 12:43:47;;;;;;;11.32;8.05;;;;;;;;;;5060032;28;20661;-79
2022/10/13 12:46:12;;;;;;;17.58;8.40;;;;;;;;;;5070980;28;20028;-78
2022/10/13 12:48:37;;;;;;;9.43;7.47;;;;;;;;;;5039530;28;20463;-75
2022/10/13 12:51:24;;;;;;;15.27;7.30;;;;;;;;;;5068557;28;20029;-75
2022/10/13 12:53:49;;;;;;;17.08;7.40;;;;;;;;;;5070220;28;21194;-78
2022/10/13 12:56:28;;;;;;;13.48;7.88;;;;;;;;;;5071873;28;20020;-78
2022/10/13 12:58:54;;;;;;;15.65;7.30;;;;;;;;;;5053626;28;20575;-78
2022/10/13 13:01:19;;;;;;;12.18;7.50;;;;;;;;;;5049584;28;20095;-79
2022/10/13 13:03:44;;;;;;;18.03;7.90;;;;;;;;;;5066456;28;20827;-78
2022/10/13 13:06:09;;;;;;;11.90;7.72;;;;;;;;;;5038182;28;20028;-79
2022/10/13 13:08:35;;;;;;;18.87;8.17;;;;;;;;;;5071420;28;20455;-78
2022/10/13 13:11:05;;;;;;;27.15;7.68;;;;;;;;;;5069438;28;21353;-78
2022/10/13 13:13:31;;;;;;;13.00;7.35;;;;;;;;;;5073853;28;20038;-81
2022/10/13 13:16:13;;;;;;;18.13;8.20;;;;;;;;;;5090751;28;20021;-81
2022/10/13 13:18:40;;;;;;;14.07;8.82;;;;;;;;;;5056859;28;20013;-79
2022/10/13 13:21:07;;;;;;;13.18;8.23;;;;;;;;;;5074719;28;20456;-75
2022/10/13 13:23:34;;;;;;;10.98;7.32;;;;;;;;;;5057114;28;20035;-75
2022/10/13 13:26:09;;;;;;;11.65;8.07;;;;;;;;;;5075437;28;20383;-79
2022/10/13 13:28:34;;;;;;;12.68;7.85;;;;;;;;;;5056719;28;20508;-77
2022/10/13 13:31:00;;;;;;;13.33;8.50;;;;;;;;;;5075735;28;20028;-73
2022/10/13 13:33:25;;;;;;;14.40;8.30;;;;;;;;;;5074578;28;20775;-78
2022/10/13 13:35:51;;;;;;;12.75;7.53;;;;;;;;;;5075299;28;20601;-80
2022/10/13 13:38:16;;;;;;;11.98;7.32;;;;;;;;;;5074811;28;20613;-81
2022/10/13 13:40:41;;;;;;;32.80;7.45;;;;;;;;;;5046796;28;20069;-78
2022/10/13 13:43:07;;;;;;;10.30;7.00;;;;;;;;;;5074399;28;20020;-79
2022/10/13 13:45:32;;;;;;;10.98;6.95;;;;;;;;;;5051160;28;20278;-79
2022/10/13 13:47:58;;;;;;;18.00;7.55;;;;;;;;;;5054952;28;20096;-85
2022/10/13 13:50:25;;;;;;;12.93;8.32;;;;;;;;;;5047127;28;20043;-72
2022/10/13 13:52:50;;;;;;;15.55;7.72;;;;;;;;;;5074960;28;20033;-68
2022/10/13 13:55:16;;;;;;;14.60;8.43;;;;;;;;;;5068458;28;20501;-69
2022/10/13 13:57:42;;;;;;;12.90;8.55;;;;;;;;;;5074196;28;20103;-71
2022/10/13 14:00:09;;;;;;;23.65;10.50;;;;;;;;;;5069981;28;20027;-71
2022/10/13 14:02:34;;;;;;;15.27;11.18;;;;;;;;;;5057137;28;20120;-71
2022/10/13 14:04:59;;;;;;;17.07;11.87;;;;;;;;;;5043127;28;20103;-71
2022/10/13 14:07:25;;;;;;;18.83;11.77;;;;;;;;;;5068667;28;20362;-69
2022/10/13 14:09:50;;;;;;;16.83;10.82;;;;;;;;;;5059104;28;20360;-73
2022/10/13 14:12:16;;;;;;;14.88;11.93;;;;;;;;;;5064465;28;20021;-77
2022/10/13 14:14:41;;;;;;;22.10;12.80;;;;;;;;;;5053622;28;20418;-77
2022/10/13 14:17:06;;;;;;;18.00;12.83;;;;;;;;;;5074124;28;20017;-73
2022/10/13 14:19:31;;;;;;;21.65;12.88;;;;;;;;;;5074369;28;20271;-83
2022/10/13 14:21:57;;;;;;;20.52;13.10;;;;;;;;;;5056649;28;20510;-82
2022/10/13 14:24:22;;;;;;;21.80;13.82;;;;;;;;;;5055807;28;20028;-81
2022/10/13 14:26:48;;;;;;;22.13;13.77;;;;;;;;;;5051917;28;20031;-78
2022/10/13 14:29:13;;;;;;;21.60;14.10;;;;;;;;;;5054291;28;20019;-74
2022/10/13 14:31:39;;;;;;;20.23;14.05;;;;;;;;;;5075150;28;20416;-72
2022/10/13 14:34:04;;;;;;;25.02;14.40;;;;;;;;;;5074304;28;20448;-72